sensor_id;sensor_type;location;lat;lon;timestamp;P1;P2;P0
55276;PMS5003;41136;51.478;-2.610;2023-04-24T00:00:24;18;16;
55276;PMS5003;41136;51.478;-2.610;2023-04-24T00:02:50;17;17;
55276;PMS5003;41136;51.478;-2.610;2023-04-24T00:05:15;16;15;
55276;PMS5003;41136;51.478;-2.610;2023-04-24T00:07:40;20;19;
55276;PMS5003;41136;51.478;-2.610;2023-04-24T00:10:06;18;16;
55276;PMS5003;41136;51.478;-2.610;2023-04-24T00:12:31;18;16;
55276;PMS5003;41136;51.478;-2.610;2023-04-24T00:14:56;14;13;
55276;PMS5003;41136;51.478;-2.610;2023-04-24T00:17:22;15;15;
55276;PMS5003;41136;51.478;-2.610;2023-04-24T00:19:47;21;16;
55276;PMS5003;41136;51.478;-2.610;2023-04-24T00:22:12;19;16;
55276;PMS5003;41136;51.478;-2.610;2023-04-24T00:24:37;17;17;
55276;PMS5003;41136;51.478;-2.610;2023-04-24T00:27:02;16;14;
55276;PMS5003;41136;51.478;-2.610;2023-04-24T00:29:27;25;18;
55276;PMS5003;41136;51.478;-2.610;2023-04-24T00:31:54;23;19;
55276;PMS5003;41136;51.478;-2.610;2023-04-24T00:34:19;18;16;
55276;PMS5003;41136;51.478;-2.610;2023-04-24T00:36:44;20;15;
55276;PMS5003;41136;51.478;-2.610;2023-04-24T00:39:09;16;15;
55276;PMS5003;41136;51.478;-2.610;2023-04-24T00:41:34;14;13;
55276;PMS5003;41136;51.478;-2.610;2023-04-24T00:44:00;13;13;
55276;PMS5003;41136;51.478;-2.610;2023-04-24T00:46:25;15;15;
55276;PMS5003;41136;51.478;-2.610;2023-04-24T00:48:50;13;12;
55276;PMS5003;41136;51.478;-2.610;2023-04-24T00:51:16;11;11;
55276;PMS5003;41136;51.478;-2.610;2023-04-24T00:53:41;13;11;
55276;PMS5003;41136;51.478;-2.610;2023-04-24T00:56:06;17;16;
55276;PMS5003;41136;51.478;-2.610;2023-04-24T00:58:32;12;12;
55276;PMS5003;41136;51.478;-2.610;2023-04-24T01:00:57;16;13;
55276;PMS5003;41136;51.478;-2.610;2023-04-24T01:03:24;12;10;
55276;PMS5003;41136;51.478;-2.610;2023-04-24T01:05:48;16;14;
55276;PMS5003;41136;51.478;-2.610;2023-04-24T01:08:13;14;13;
55276;PMS5003;41136;51.478;-2.610;2023-04-24T01:10:38;14;14;
55276;PMS5003;41136;51.478;-2.610;2023-04-24T01:13:03;11;11;
55276;PMS5003;41136;51.478;-2.610;2023-04-24T01:15:29;11;11;
55276;PMS5003;41136;51.478;-2.610;2023-04-24T01:17:54;16;13;
55276;PMS5003;41136;51.478;-2.610;2023-04-24T01:20:20;21;15;
55276;PMS5003;41136;51.478;-2.610;2023-04-24T01:22:45;14;13;
55276;PMS5003;41136;51.478;-2.610;2023-04-24T01:25:10;14;14;
55276;PMS5003;41136;51.478;-2.610;2023-04-24T01:27:36;15;14;
55276;PMS5003;41136;51.478;-2.610;2023-04-24T01:30:01;15;14;
55276;PMS5003;41136;51.478;-2.610;2023-04-24T01:32:26;16;12;
55276;PMS5003;41136;51.478;-2.610;2023-04-24T01:34:52;13;12;
55276;PMS5003;41136;51.478;-2.610;2023-04-24T01:37:17;12;12;
55276;PMS5003;41136;51.478;-2.610;2023-04-24T01:39:42;14;14;
55276;PMS5003;41136;51.478;-2.610;2023-04-24T01:42:08;12;10;
55276;PMS5003;41136;51.478;-2.610;2023-04-24T01:44:34;14;12;
55276;PMS5003;41136;51.478;-2.610;2023-04-24T01:47:00;15;13;
55276;PMS5003;41136;51.478;-2.610;2023-04-24T01:49:25;11;11;
55276;PMS5003;41136;51.478;-2.610;2023-04-24T01:51:50;12;11;
55276;PMS5003;41136;51.478;-2.610;2023-04-24T01:54:16;11;11;
55276;PMS5003;41136;51.478;-2.610;2023-04-24T01:56:42;10;10;
55276;PMS5003;41136;51.478;-2.610;2023-04-24T01:59:06;12;12;
55276;PMS5003;41136;51.478;-2.610;2023-04-24T02:01:34;17;14;
55276;PMS5003;41136;51.478;-2.610;2023-04-24T02:03:57;13;12;
55276;PMS5003;41136;51.478;-2.610;2023-04-24T02:06:22;14;14;
55276;PMS5003;41136;51.478;-2.610;2023-04-24T02:08:48;16;15;
55276;PMS5003;41136;51.478;-2.610;2023-04-24T02:11:13;19;17;
55276;PMS5003;41136;51.478;-2.610;2023-04-24T02:13:39;18;14;
55276;PMS5003;41136;51.478;-2.610;2023-04-24T02:16:04;17;14;
55276;PMS5003;41136;51.478;-2.610;2023-04-24T02:18:29;18;16;
55276;PMS5003;41136;51.478;-2.610;2023-04-24T02:20:55;18;15;
55276;PMS5003;41136;51.478;-2.610;2023-04-24T02:23:20;17;16;
55276;PMS5003;41136;51.478;-2.610;2023-04-24T02:25:45;18;18;
55276;PMS5003;41136;51.478;-2.610;2023-04-24T02:28:11;17;14;
55276;PMS5003;41136;51.478;-2.610;2023-04-24T02:30:36;20;19;
55276;PMS5003;41136;51.478;-2.610;2023-04-24T02:33:01;16;13;
55276;PMS5003;41136;51.478;-2.610;2023-04-24T02:35:26;17;14;
55276;PMS5003;41136;51.478;-2.610;2023-04-24T02:37:52;15;14;
55276;PMS5003;41136;51.478;-2.610;2023-04-24T02:40:17;22;17;
55276;PMS5003;41136;51.478;-2.610;2023-04-24T02:42:42;18;15;
55276;PMS5003;41136;51.478;-2.610;2023-04-24T02:45:12;16;15;
55276;PMS5003;41136;51.478;-2.610;2023-04-24T02:47:33;15;14;
55276;PMS5003;41136;51.478;-2.610;2023-04-24T02:49:58;16;16;
55276;PMS5003;41136;51.478;-2.610;2023-04-24T02:52:24;17;16;
55276;PMS5003;41136;51.478;-2.610;2023-04-24T02:54:49;22;19;
55276;PMS5003;41136;51.478;-2.610;2023-04-24T02:57:15;19;15;
55276;PMS5003;41136;51.478;-2.610;2023-04-24T02:59:40;18;16;
55276;PMS5003;41136;51.478;-2.610;2023-04-24T03:02:05;17;14;
55276;PMS5003;41136;51.478;-2.610;2023-04-24T03:04:31;17;14;
55276;PMS5003;41136;51.478;-2.610;2023-04-24T03:06:56;19;15;
55276;PMS5003;41136;51.478;-2.610;2023-04-24T03:09:21;15;14;
55276;PMS5003;41136;51.478;-2.610;2023-04-24T03:11:46;20;15;
55276;PMS5003;41136;51.478;-2.610;2023-04-24T03:16:35;14;14;
55276;PMS5003;41136;51.478;-2.610;2023-04-24T03:19:01;20;17;
55276;PMS5003;41136;51.478;-2.610;2023-04-24T03:21:26;18;14;
55276;PMS5003;41136;51.478;-2.610;2023-04-24T03:23:51;20;17;
55276;PMS5003;41136;51.478;-2.610;2023-04-24T03:26:16;17;15;
55276;PMS5003;41136;51.478;-2.610;2023-04-24T03:28:42;19;16;
55276;PMS5003;41136;51.478;-2.610;2023-04-24T03:31:07;17;17;
55276;PMS5003;41136;51.478;-2.610;2023-04-24T03:33:32;17;13;
55276;PMS5003;41136;51.478;-2.610;2023-04-24T03:35:57;19;18;
55276;PMS5003;41136;51.478;-2.610;2023-04-24T03:38:23;20;17;
55276;PMS5003;41136;51.478;-2.610;2023-04-24T03:40:49;21;20;
55276;PMS5003;41136;51.478;-2.610;2023-04-24T03:43:14;17;16;
55276;PMS5003;41136;51.478;-2.610;2023-04-24T03:45:39;20;19;
55276;PMS5003;41136;51.478;-2.610;2023-04-24T03:48:05;17;17;
55276;PMS5003;41136;51.478;-2.610;2023-04-24T03:50:30;18;18;
55276;PMS5003;41136;51.478;-2.610;2023-04-24T03:52:55;19;17;
55276;PMS5003;41136;51.478;-2.610;2023-04-24T03:55:21;19;18;
55276;PMS5003;41136;51.478;-2.610;2023-04-24T03:57:46;20;17;
55276;PMS5003;41136;51.478;-2.610;2023-04-24T04:00:11;16;16;
55276;PMS5003;41136;51.478;-2.610;2023-04-24T04:02:37;15;15;
55276;PMS5003;41136;51.478;-2.610;2023-04-24T04:05:03;16;15;
55276;PMS5003;41136;51.478;-2.610;2023-04-24T04:07:28;15;14;
55276;PMS5003;41136;51.478;-2.610;2023-04-24T04:09:53;19;17;
55276;PMS5003;41136;51.478;-2.610;2023-04-24T04:12:18;22;17;
55276;PMS5003;41136;51.478;-2.610;2023-04-24T04:14:43;18;16;
55276;PMS5003;41136;51.478;-2.610;2023-04-24T04:17:08;18;18;
55276;PMS5003;41136;51.478;-2.610;2023-04-24T04:19:34;18;18;
55276;PMS5003;41136;51.478;-2.610;2023-04-24T04:22:00;17;16;
55276;PMS5003;41136;51.478;-2.610;2023-04-24T04:24:25;19;19;
55276;PMS5003;41136;51.478;-2.610;2023-04-24T04:26:50;19;16;
55276;PMS5003;41136;51.478;-2.610;2023-04-24T04:29:16;25;18;
55276;PMS5003;41136;51.478;-2.610;2023-04-24T04:31:41;21;20;
55276;PMS5003;41136;51.478;-2.610;2023-04-24T04:34:06;18;16;
55276;PMS5003;41136;51.478;-2.610;2023-04-24T04:36:32;16;16;
55276;PMS5003;41136;51.478;-2.610;2023-04-24T04:38:58;18;16;
55276;PMS5003;41136;51.478;-2.610;2023-04-24T04:41:23;17;14;
55276;PMS5003;41136;51.478;-2.610;2023-04-24T04:43:48;20;18;
55276;PMS5003;41136;51.478;-2.610;2023-04-24T04:46:14;22;19;
55276;PMS5003;41136;51.478;-2.610;2023-04-24T04:48:39;18;18;
55276;PMS5003;41136;51.478;-2.610;2023-04-24T04:51:05;20;19;
55276;PMS5003;41136;51.478;-2.610;2023-04-24T04:53:30;19;16;
55276;PMS5003;41136;51.478;-2.610;2023-04-24T04:55:56;19;17;
55276;PMS5003;41136;51.478;-2.610;2023-04-24T04:58:21;18;17;
55276;PMS5003;41136;51.478;-2.610;2023-04-24T05:00:47;13;13;
55276;PMS5003;41136;51.478;-2.610;2023-04-24T05:03:12;21;18;
55276;PMS5003;41136;51.478;-2.610;2023-04-24T05:05:38;19;19;
55276;PMS5003;41136;51.478;-2.610;2023-04-24T05:08:03;16;14;
55276;PMS5003;41136;51.478;-2.610;2023-04-24T05:10:28;17;16;
55276;PMS5003;41136;51.478;-2.610;2023-04-24T05:12:54;14;13;
55276;PMS5003;41136;51.478;-2.610;2023-04-24T05:15:19;16;16;
55276;PMS5003;41136;51.478;-2.610;2023-04-24T05:17:44;16;16;
55276;PMS5003;41136;51.478;-2.610;2023-04-24T05:20:10;22;18;
55276;PMS5003;41136;51.478;-2.610;2023-04-24T05:22:35;19;16;
55276;PMS5003;41136;51.478;-2.610;2023-04-24T05:25:00;19;17;
55276;PMS5003;41136;51.478;-2.610;2023-04-24T05:27:26;19;19;
55276;PMS5003;41136;51.478;-2.610;2023-04-24T05:29:51;18;18;
55276;PMS5003;41136;51.478;-2.610;2023-04-24T05:32:16;15;15;
55276;PMS5003;41136;51.478;-2.610;2023-04-24T05:34:42;21;18;
55276;PMS5003;41136;51.478;-2.610;2023-04-24T05:37:07;23;20;
55276;PMS5003;41136;51.478;-2.610;2023-04-24T05:39:32;22;18;
55276;PMS5003;41136;51.478;-2.610;2023-04-24T05:41:58;22;18;
55276;PMS5003;41136;51.478;-2.610;2023-04-24T05:44:23;20;18;
55276;PMS5003;41136;51.478;-2.610;2023-04-24T05:46:48;19;19;
55276;PMS5003;41136;51.478;-2.610;2023-04-24T05:49:13;23;22;
55276;PMS5003;41136;51.478;-2.610;2023-04-24T05:51:38;15;15;
55276;PMS5003;41136;51.478;-2.610;2023-04-24T05:54:04;20;19;
55276;PMS5003;41136;51.478;-2.610;2023-04-24T05:56:29;17;17;
55276;PMS5003;41136;51.478;-2.610;2023-04-24T05:58:54;20;20;
55276;PMS5003;41136;51.478;-2.610;2023-04-24T06:01:20;23;22;
55276;PMS5003;41136;51.478;-2.610;2023-04-24T06:03:45;23;21;
55276;PMS5003;41136;51.478;-2.610;2023-04-24T06:06:10;22;20;
55276;PMS5003;41136;51.478;-2.610;2023-04-24T06:08:35;28;24;
55276;PMS5003;41136;51.478;-2.610;2023-04-24T06:11:00;24;22;
55276;PMS5003;41136;51.478;-2.610;2023-04-24T06:13:26;25;24;
55276;PMS5003;41136;51.478;-2.610;2023-04-24T06:15:52;30;24;
55276;PMS5003;41136;51.478;-2.610;2023-04-24T06:18:17;25;23;
55276;PMS5003;41136;51.478;-2.610;2023-04-24T06:20:43;24;24;
55276;PMS5003;41136;51.478;-2.610;2023-04-24T06:23:08;27;24;
55276;PMS5003;41136;51.478;-2.610;2023-04-24T06:25:33;23;21;
55276;PMS5003;41136;51.478;-2.610;2023-04-24T06:27:59;17;16;
55276;PMS5003;41136;51.478;-2.610;2023-04-24T06:30:24;24;22;
55276;PMS5003;41136;51.478;-2.610;2023-04-24T06:32:49;18;18;
55276;PMS5003;41136;51.478;-2.610;2023-04-24T06:35:15;23;19;
55276;PMS5003;41136;51.478;-2.610;2023-04-24T06:37:40;21;19;
55276;PMS5003;41136;51.478;-2.610;2023-04-24T06:40:05;21;17;
55276;PMS5003;41136;51.478;-2.610;2023-04-24T06:42:31;21;20;
55276;PMS5003;41136;51.478;-2.610;2023-04-24T06:44:56;21;19;
55276;PMS5003;41136;51.478;-2.610;2023-04-24T06:47:22;20;18;
55276;PMS5003;41136;51.478;-2.610;2023-04-24T06:49:47;26;26;
55276;PMS5003;41136;51.478;-2.610;2023-04-24T06:52:13;24;22;
55276;PMS5003;41136;51.478;-2.610;2023-04-24T06:54:39;28;26;
55276;PMS5003;41136;51.478;-2.610;2023-04-24T06:57:04;26;22;
55276;PMS5003;41136;51.478;-2.610;2023-04-24T06:59:29;25;23;
55276;PMS5003;41136;51.478;-2.610;2023-04-24T07:01:55;30;28;
55276;PMS5003;41136;51.478;-2.610;2023-04-24T07:04:20;28;26;
55276;PMS5003;41136;51.478;-2.610;2023-04-24T07:06:45;29;24;
55276;PMS5003;41136;51.478;-2.610;2023-04-24T07:09:10;33;29;
55276;PMS5003;41136;51.478;-2.610;2023-04-24T07:11:36;33;27;
55276;PMS5003;41136;51.478;-2.610;2023-04-24T07:14:01;28;26;
55276;PMS5003;41136;51.478;-2.610;2023-04-24T07:16:26;30;28;
55276;PMS5003;41136;51.478;-2.610;2023-04-24T07:18:51;26;24;
55276;PMS5003;41136;51.478;-2.610;2023-04-24T07:21:17;24;24;
55276;PMS5003;41136;51.478;-2.610;2023-04-24T07:23:42;32;27;
55276;PMS5003;41136;51.478;-2.610;2023-04-24T07:26:08;26;24;
55276;PMS5003;41136;51.478;-2.610;2023-04-24T07:28:33;30;26;
55276;PMS5003;41136;51.478;-2.610;2023-04-24T07:30:58;29;25;
55276;PMS5003;41136;51.478;-2.610;2023-04-24T07:33:24;30;25;
55276;PMS5003;41136;51.478;-2.610;2023-04-24T07:35:49;23;23;
55276;PMS5003;41136;51.478;-2.610;2023-04-24T07:38:15;24;20;
55276;PMS5003;41136;51.478;-2.610;2023-04-24T07:40:40;23;19;
55276;PMS5003;41136;51.478;-2.610;2023-04-24T07:43:06;26;24;
55276;PMS5003;41136;51.478;-2.610;2023-04-24T07:45:32;26;24;
55276;PMS5003;41136;51.478;-2.610;2023-04-24T07:47:57;27;24;
55276;PMS5003;41136;51.478;-2.610;2023-04-24T07:50:22;26;23;
55276;PMS5003;41136;51.478;-2.610;2023-04-24T07:52:48;24;20;
55276;PMS5003;41136;51.478;-2.610;2023-04-24T07:55:13;22;22;
55276;PMS5003;41136;51.478;-2.610;2023-04-24T07:57:38;26;24;
55276;PMS5003;41136;51.478;-2.610;2023-04-24T08:00:04;25;22;
55276;PMS5003;41136;51.478;-2.610;2023-04-24T08:02:30;27;21;
55276;PMS5003;41136;51.478;-2.610;2023-04-24T08:04:55;24;23;
55276;PMS5003;41136;51.478;-2.610;2023-04-24T08:07:20;27;20;
55276;PMS5003;41136;51.478;-2.610;2023-04-24T08:09:46;17;17;
55276;PMS5003;41136;51.478;-2.610;2023-04-24T08:12:11;17;16;
55276;PMS5003;41136;51.478;-2.610;2023-04-24T08:14:37;21;19;
55276;PMS5003;41136;51.478;-2.610;2023-04-24T08:17:02;20;16;
55276;PMS5003;41136;51.478;-2.610;2023-04-24T08:19:27;22;20;
55276;PMS5003;41136;51.478;-2.610;2023-04-24T08:21:53;25;23;
55276;PMS5003;41136;51.478;-2.610;2023-04-24T08:24:18;18;18;
55276;PMS5003;41136;51.478;-2.610;2023-04-24T08:26:44;20;18;
55276;PMS5003;41136;51.478;-2.610;2023-04-24T08:29:09;23;19;
55276;PMS5003;41136;51.478;-2.610;2023-04-24T08:31:34;27;21;
55276;PMS5003;41136;51.478;-2.610;2023-04-24T08:34:00;22;21;
55276;PMS5003;41136;51.478;-2.610;2023-04-24T08:36:25;25;24;
55276;PMS5003;41136;51.478;-2.610;2023-04-24T08:38:50;25;23;
55276;PMS5003;41136;51.478;-2.610;2023-04-24T08:41:15;21;18;
55276;PMS5003;41136;51.478;-2.610;2023-04-24T08:43:41;19;17;
55276;PMS5003;41136;51.478;-2.610;2023-04-24T08:46:06;21;21;
55276;PMS5003;41136;51.478;-2.610;2023-04-24T08:48:31;22;21;
55276;PMS5003;41136;51.478;-2.610;2023-04-24T08:50:57;20;18;
55276;PMS5003;41136;51.478;-2.610;2023-04-24T08:53:22;21;21;
55276;PMS5003;41136;51.478;-2.610;2023-04-24T08:55:48;27;22;
55276;PMS5003;41136;51.478;-2.610;2023-04-24T08:58:13;22;21;
55276;PMS5003;41136;51.478;-2.610;2023-04-24T09:00:38;24;23;
55276;PMS5003;41136;51.478;-2.610;2023-04-24T09:03:03;25;22;
55276;PMS5003;41136;51.478;-2.610;2023-04-24T09:05:29;24;21;
55276;PMS5003;41136;51.478;-2.610;2023-04-24T09:07:55;26;24;
55276;PMS5003;41136;51.478;-2.610;2023-04-24T09:10:21;24;24;
55276;PMS5003;41136;51.478;-2.610;2023-04-24T09:12:45;25;25;
55276;PMS5003;41136;51.478;-2.610;2023-04-24T09:15:16;25;23;
55276;PMS5003;41136;51.478;-2.610;2023-04-24T09:17:37;24;23;
55276;PMS5003;41136;51.478;-2.610;2023-04-24T09:20:02;21;18;
55276;PMS5003;41136;51.478;-2.610;2023-04-24T09:22:28;18;18;
55276;PMS5003;41136;51.478;-2.610;2023-04-24T09:27:18;24;22;
55276;PMS5003;41136;51.478;-2.610;2023-04-24T09:34:35;21;18;
55276;PMS5003;41136;51.478;-2.610;2023-04-24T09:37:00;25;22;
55276;PMS5003;41136;51.478;-2.610;2023-04-24T09:39:25;24;22;
55276;PMS5003;41136;51.478;-2.610;2023-04-24T09:41:52;23;21;
55276;PMS5003;41136;51.478;-2.610;2023-04-24T09:44:17;27;25;
55276;PMS5003;41136;51.478;-2.610;2023-04-24T09:46:42;28;25;
55276;PMS5003;41136;51.478;-2.610;2023-04-24T09:49:08;30;23;
55276;PMS5003;41136;51.478;-2.610;2023-04-24T09:51:33;28;22;
55276;PMS5003;41136;51.478;-2.610;2023-04-24T09:53:58;28;26;
55276;PMS5003;41136;51.478;-2.610;2023-04-24T09:56:25;27;25;
55276;PMS5003;41136;51.478;-2.610;2023-04-24T09:58:50;28;26;
55276;PMS5003;41136;51.478;-2.610;2023-04-24T10:01:15;32;27;
55276;PMS5003;41136;51.478;-2.610;2023-04-24T10:03:41;27;25;
55276;PMS5003;41136;51.478;-2.610;2023-04-24T10:06:06;27;23;
55276;PMS5003;41136;51.478;-2.610;2023-04-24T10:08:32;31;28;
55276;PMS5003;41136;51.478;-2.610;2023-04-24T10:10:57;29;25;
55276;PMS5003;41136;51.478;-2.610;2023-04-24T10:13:22;28;25;
55276;PMS5003;41136;51.478;-2.610;2023-04-24T10:15:47;29;25;
55276;PMS5003;41136;51.478;-2.610;2023-04-24T10:18:13;25;25;
55276;PMS5003;41136;51.478;-2.610;2023-04-24T10:20:39;30;29;
55276;PMS5003;41136;51.478;-2.610;2023-04-24T10:23:04;31;30;
55276;PMS5003;41136;51.478;-2.610;2023-04-24T10:25:30;32;29;
55276;PMS5003;41136;51.478;-2.610;2023-04-24T10:27:55;28;27;
55276;PMS5003;41136;51.478;-2.610;2023-04-24T10:30:20;30;27;
55276;PMS5003;41136;51.478;-2.610;2023-04-24T10:32:46;32;29;
55276;PMS5003;41136;51.478;-2.610;2023-04-24T10:35:11;25;25;
55276;PMS5003;41136;51.478;-2.610;2023-04-24T10:37:37;22;22;
55276;PMS5003;41136;51.478;-2.610;2023-04-24T10:40:02;28;27;
55276;PMS5003;41136;51.478;-2.610;2023-04-24T10:42:28;29;27;
55276;PMS5003;41136;51.478;-2.610;2023-04-24T10:44:53;25;23;
55276;PMS5003;41136;51.478;-2.610;2023-04-24T10:47:18;24;22;
55276;PMS5003;41136;51.478;-2.610;2023-04-24T10:49:43;22;20;
55276;PMS5003;41136;51.478;-2.610;2023-04-24T10:52:09;18;18;
55276;PMS5003;41136;51.478;-2.610;2023-04-24T10:54:35;30;24;
55276;PMS5003;41136;51.478;-2.610;2023-04-24T10:59:26;24;24;
55276;PMS5003;41136;51.478;-2.610;2023-04-24T11:01:52;29;27;
55276;PMS5003;41136;51.478;-2.610;2023-04-24T11:04:21;19;18;
55276;PMS5003;41136;51.478;-2.610;2023-04-24T11:06:42;24;21;
55276;PMS5003;41136;51.478;-2.610;2023-04-24T11:09:07;24;21;
55276;PMS5003;41136;51.478;-2.610;2023-04-24T11:11:32;19;18;
55276;PMS5003;41136;51.478;-2.610;2023-04-24T11:14:02;22;16;
55276;PMS5003;41136;51.478;-2.610;2023-04-24T11:16:25;22;19;
55276;PMS5003;41136;51.478;-2.610;2023-04-24T11:18:50;21;20;
55276;PMS5003;41136;51.478;-2.610;2023-04-24T11:21:15;17;15;
55276;PMS5003;41136;51.478;-2.610;2023-04-24T11:23:39;19;19;
55276;PMS5003;41136;51.478;-2.610;2023-04-24T11:28:29;27;24;
55276;PMS5003;41136;51.478;-2.610;2023-04-24T11:30:55;21;20;
55276;PMS5003;41136;51.478;-2.610;2023-04-24T11:33:20;27;21;
55276;PMS5003;41136;51.478;-2.610;2023-04-24T11:35:45;19;18;
55276;PMS5003;41136;51.478;-2.610;2023-04-24T11:38:10;18;18;
55276;PMS5003;41136;51.478;-2.610;2023-04-24T11:40:36;14;13;
55276;PMS5003;41136;51.478;-2.610;2023-04-24T11:43:01;10;10;
55276;PMS5003;41136;51.478;-2.610;2023-04-24T11:45:28;15;14;
55276;PMS5003;41136;51.478;-2.610;2023-04-24T11:47:52;17;15;
55276;PMS5003;41136;51.478;-2.610;2023-04-24T11:50:18;18;16;
55276;PMS5003;41136;51.478;-2.610;2023-04-24T11:52:44;22;19;
55276;PMS5003;41136;51.478;-2.610;2023-04-24T11:57:34;13;13;
55276;PMS5003;41136;51.478;-2.610;2023-04-24T12:00:00;16;15;
55276;PMS5003;41136;51.478;-2.610;2023-04-24T12:02:26;20;15;
55276;PMS5003;41136;51.478;-2.610;2023-04-24T12:04:51;19;14;
55276;PMS5003;41136;51.478;-2.610;2023-04-24T12:07:16;12;10;
55276;PMS5003;41136;51.478;-2.610;2023-04-24T12:09:41;16;14;
55276;PMS5003;41136;51.478;-2.610;2023-04-24T12:12:06;19;14;
55276;PMS5003;41136;51.478;-2.610;2023-04-24T12:14:32;16;14;
55276;PMS5003;41136;51.478;-2.610;2023-04-24T12:16:58;11;11;
55276;PMS5003;41136;51.478;-2.610;2023-04-24T12:19:23;15;13;
55276;PMS5003;41136;51.478;-2.610;2023-04-24T12:24:14;16;14;
55276;PMS5003;41136;51.478;-2.610;2023-04-24T12:26:42;10;10;
55276;PMS5003;41136;51.478;-2.610;2023-04-24T12:29:04;16;13;
55276;PMS5003;41136;51.478;-2.610;2023-04-24T12:31:30;15;12;
55276;PMS5003;41136;51.478;-2.610;2023-04-24T12:33:55;13;13;
55276;PMS5003;41136;51.478;-2.610;2023-04-24T12:36:21;14;14;
55276;PMS5003;41136;51.478;-2.610;2023-04-24T12:38:46;12;12;
55276;PMS5003;41136;51.478;-2.610;2023-04-24T12:41:13;15;14;
55276;PMS5003;41136;51.478;-2.610;2023-04-24T12:43:37;14;12;
55276;PMS5003;41136;51.478;-2.610;2023-04-24T12:46:03;15;12;
55276;PMS5003;41136;51.478;-2.610;2023-04-24T12:48:28;12;12;
55276;PMS5003;41136;51.478;-2.610;2023-04-24T12:50:53;15;14;
55276;PMS5003;41136;51.478;-2.610;2023-04-24T12:53:19;14;14;
55276;PMS5003;41136;51.478;-2.610;2023-04-24T12:55:44;11;11;
55276;PMS5003;41136;51.478;-2.610;2023-04-24T12:58:10;11;11;
55276;PMS5003;41136;51.478;-2.610;2023-04-24T13:00:35;16;14;
55276;PMS5003;41136;51.478;-2.610;2023-04-24T13:03:00;13;13;
55276;PMS5003;41136;51.478;-2.610;2023-04-24T13:05:26;18;18;
55276;PMS5003;41136;51.478;-2.610;2023-04-24T13:07:51;16;13;
55276;PMS5003;41136;51.478;-2.610;2023-04-24T13:10:17;15;13;
55276;PMS5003;41136;51.478;-2.610;2023-04-24T13:12:41;15;14;
55276;PMS5003;41136;51.478;-2.610;2023-04-24T13:15:07;15;15;
55276;PMS5003;41136;51.478;-2.610;2023-04-24T13:17:32;19;18;
55276;PMS5003;41136;51.478;-2.610;2023-04-24T13:19:58;17;16;
55276;PMS5003;41136;51.478;-2.610;2023-04-24T13:22:23;14;14;
55276;PMS5003;41136;51.478;-2.610;2023-04-24T13:24:48;17;15;
55276;PMS5003;41136;51.478;-2.610;2023-04-24T13:27:14;17;16;
55276;PMS5003;41136;51.478;-2.610;2023-04-24T13:29:40;15;13;
55276;PMS5003;41136;51.478;-2.610;2023-04-24T13:32:05;13;13;
55276;PMS5003;41136;51.478;-2.610;2023-04-24T13:34:30;14;13;
55276;PMS5003;41136;51.478;-2.610;2023-04-24T13:36:56;15;13;
55276;PMS5003;41136;51.478;-2.610;2023-04-24T13:39:21;16;13;
55276;PMS5003;41136;51.478;-2.610;2023-04-24T13:41:46;20;15;
55276;PMS5003;41136;51.478;-2.610;2023-04-24T13:44:11;16;11;
55276;PMS5003;41136;51.478;-2.610;2023-04-24T13:46:36;14;13;
55276;PMS5003;41136;51.478;-2.610;2023-04-24T13:49:01;10;10;
55276;PMS5003;41136;51.478;-2.610;2023-04-24T13:51:26;15;15;
55276;PMS5003;41136;51.478;-2.610;2023-04-24T13:53:52;17;15;
55276;PMS5003;41136;51.478;-2.610;2023-04-24T13:56:17;16;15;
55276;PMS5003;41136;51.478;-2.610;2023-04-24T13:58:42;15;13;
55276;PMS5003;41136;51.478;-2.610;2023-04-24T14:01:08;16;16;
55276;PMS5003;41136;51.478;-2.610;2023-04-24T14:03:34;17;14;
55276;PMS5003;41136;51.478;-2.610;2023-04-24T14:05:59;14;14;
55276;PMS5003;41136;51.478;-2.610;2023-04-24T14:08:24;12;12;
55276;PMS5003;41136;51.478;-2.610;2023-04-24T14:10:49;13;12;
55276;PMS5003;41136;51.478;-2.610;2023-04-24T14:13:15;11;9;
55276;PMS5003;41136;51.478;-2.610;2023-04-24T14:15:46;13;13;
55276;PMS5003;41136;51.478;-2.610;2023-04-24T14:18:06;13;13;
55276;PMS5003;41136;51.478;-2.610;2023-04-24T14:20:32;14;14;
55276;PMS5003;41136;51.478;-2.610;2023-04-24T14:22:57;11;11;
55276;PMS5003;41136;51.478;-2.610;2023-04-24T14:25:23;12;12;
55276;PMS5003;41136;51.478;-2.610;2023-04-24T14:27:48;11;10;
55276;PMS5003;41136;51.478;-2.610;2023-04-24T14:30:13;10;10;
55276;PMS5003;41136;51.478;-2.610;2023-04-24T14:32:39;9;8;
55276;PMS5003;41136;51.478;-2.610;2023-04-24T14:35:04;8;7;
55276;PMS5003;41136;51.478;-2.610;2023-04-24T14:37:29;8;8;
55276;PMS5003;41136;51.478;-2.610;2023-04-24T14:39:54;10;8;
55276;PMS5003;41136;51.478;-2.610;2023-04-24T14:42:20;14;11;
55276;PMS5003;41136;51.478;-2.610;2023-04-24T14:44:45;15;13;
55276;PMS5003;41136;51.478;-2.610;2023-04-24T14:47:11;10;9;
55276;PMS5003;41136;51.478;-2.610;2023-04-24T14:49:36;12;11;
55276;PMS5003;41136;51.478;-2.610;2023-04-24T14:52:02;7;7;
55276;PMS5003;41136;51.478;-2.610;2023-04-24T14:54:26;10;10;
55276;PMS5003;41136;51.478;-2.610;2023-04-24T14:56:52;12;11;
55276;PMS5003;41136;51.478;-2.610;2023-04-24T14:59:17;7;5;
55276;PMS5003;41136;51.478;-2.610;2023-04-24T15:01:42;6;6;
55276;PMS5003;41136;51.478;-2.610;2023-04-24T15:04:08;5;5;
55276;PMS5003;41136;51.478;-2.610;2023-04-24T15:06:33;7;5;
55276;PMS5003;41136;51.478;-2.610;2023-04-24T15:08:58;10;9;
55276;PMS5003;41136;51.478;-2.610;2023-04-24T15:11:24;10;8;
55276;PMS5003;41136;51.478;-2.610;2023-04-24T15:13:49;6;5;
55276;PMS5003;41136;51.478;-2.610;2023-04-24T15:16:15;5;5;
55276;PMS5003;41136;51.478;-2.610;2023-04-24T15:18:40;7;7;
55276;PMS5003;41136;51.478;-2.610;2023-04-24T15:21:05;9;7;
55276;PMS5003;41136;51.478;-2.610;2023-04-24T15:23:31;8;8;
55276;PMS5003;41136;51.478;-2.610;2023-04-24T15:25:56;7;7;
55276;PMS5003;41136;51.478;-2.610;2023-04-24T15:28:22;8;8;
55276;PMS5003;41136;51.478;-2.610;2023-04-24T15:30:47;8;6;
55276;PMS5003;41136;51.478;-2.610;2023-04-24T15:33:13;9;8;
55276;PMS5003;41136;51.478;-2.610;2023-04-24T15:35:38;9;8;
55276;PMS5003;41136;51.478;-2.610;2023-04-24T15:38:03;7;7;
55276;PMS5003;41136;51.478;-2.610;2023-04-24T15:40:29;5;5;
55276;PMS5003;41136;51.478;-2.610;2023-04-24T15:42:54;9;7;
55276;PMS5003;41136;51.478;-2.610;2023-04-24T15:45:20;8;6;
55276;PMS5003;41136;51.478;-2.610;2023-04-24T15:47:45;7;7;
55276;PMS5003;41136;51.478;-2.610;2023-04-24T15:50:11;8;7;
55276;PMS5003;41136;51.478;-2.610;2023-04-24T15:52:36;11;9;
55276;PMS5003;41136;51.478;-2.610;2023-04-24T15:55:02;8;8;
55276;PMS5003;41136;51.478;-2.610;2023-04-24T15:57:27;8;6;
55276;PMS5003;41136;51.478;-2.610;2023-04-24T15:59:52;7;7;
55276;PMS5003;41136;51.478;-2.610;2023-04-24T16:05:58;8;6;
55276;PMS5003;41136;51.478;-2.610;2023-04-24T16:08:24;9;7;
55276;PMS5003;41136;51.478;-2.610;2023-04-24T16:10:49;9;9;
55276;PMS5003;41136;51.478;-2.610;2023-04-24T16:13:15;7;6;